sensor_id;sensor_type;location;lat;lon;timestamp;P1;durP1;ratioP1;P2;durP2;ratioP2
13252;SDS011;6693;54.370;10.132;2023-07-29T00:00:29;10.57;;;5.20;;
13252;SDS011;6693;54.370;10.132;2023-07-29T00:01:30;9.80;;;4.63;;
13252;SDS011;6693;54.370;10.132;2023-07-29T00:02:33;12.65;;;7.05;;
13252;SDS011;6693;54.370;10.132;2023-07-29T00:03:36;12.88;;;7.53;;
13252;SDS011;6693;54.370;10.132;2023-07-29T00:04:39;16.60;;;10.00;;
13252;SDS011;6693;54.370;10.132;2023-07-29T00:05:40;16.15;;;10.25;;
13252;SDS011;6693;54.370;10.132;2023-07-29T00:06:43;12.35;;;6.30;;
13252;SDS011;6693;54.370;10.132;2023-07-29T00:07:44;10.68;;;5.43;;
13252;SDS011;6693;54.370;10.132;2023-07-29T00:08:47;11.05;;;5.35;;
13252;SDS011;6693;54.370;10.132;2023-07-29T00:09:48;10.73;;;5.43;;
13252;SDS011;6693;54.370;10.132;2023-07-29T00:10:51;14.43;;;8.43;;
13252;SDS011;6693;54.370;10.132;2023-07-29T00:11:52;10.35;;;5.25;;
13252;SDS011;6693;54.370;10.132;2023-07-29T00:12:55;14.00;;;5.82;;
13252;SDS011;6693;54.370;10.132;2023-07-29T00:13:56;11.30;;;5.53;;
13252;SDS011;6693;54.370;10.132;2023-07-29T00:14:56;11.25;;;5.13;;
13252;SDS011;6693;54.370;10.132;2023-07-29T00:15:59;11.43;;;4.97;;
13252;SDS011;6693;54.370;10.132;2023-07-29T00:17:00;12.32;;;5.38;;
13252;SDS011;6693;54.370;10.132;2023-07-29T00:18:03;12.68;;;5.75;;
13252;SDS011;6693;54.370;10.132;2023-07-29T00:19:06;11.80;;;5.30;;
13252;SDS011;6693;54.370;10.132;2023-07-29T00:20:10;11.90;;;5.60;;
13252;SDS011;6693;54.370;10.132;2023-07-29T00:21:10;12.45;;;5.70;;
13252;SDS011;6693;54.370;10.132;2023-07-29T00:22:14;11.48;;;5.60;;
13252;SDS011;6693;54.370;10.132;2023-07-29T00:23:14;12.50;;;5.53;;
13252;SDS011;6693;54.370;10.132;2023-07-29T00:24:19;10.48;;;5.03;;
13252;SDS011;6693;54.370;10.132;2023-07-29T00:25:19;10.13;;;4.90;;
13252;SDS011;6693;54.370;10.132;2023-07-29T00:26:20;10.30;;;4.75;;
13252;SDS011;6693;54.370;10.132;2023-07-29T00:27:26;10.52;;;4.68;;
13252;SDS011;6693;54.370;10.132;2023-07-29T00:28:26;10.27;;;5.10;;
13252;SDS011;6693;54.370;10.132;2023-07-29T00:29:29;11.82;;;5.50;;
13252;SDS011;6693;54.370;10.132;2023-07-29T00:30:30;10.68;;;5.15;;
13252;SDS011;6693;54.370;10.132;2023-07-29T00:31:33;12.25;;;6.30;;
13252;SDS011;6693;54.370;10.132;2023-07-29T00:32:35;13.70;;;7.40;;
13252;SDS011;6693;54.370;10.132;2023-07-29T00:33:38;11.63;;;6.30;;
13252;SDS011;6693;54.370;10.132;2023-07-29T00:34:41;11.50;;;6.28;;
13252;SDS011;6693;54.370;10.132;2023-07-29T00:35:44;12.00;;;6.47;;
13252;SDS011;6693;54.370;10.132;2023-07-29T00:36:45;13.93;;;6.82;;
13252;SDS011;6693;54.370;10.132;2023-07-29T00:37:48;13.82;;;6.68;;
13252;SDS011;6693;54.370;10.132;2023-07-29T00:38:49;12.70;;;6.68;;
13252;SDS011;6693;54.370;10.132;2023-07-29T00:39:50;12.30;;;6.47;;
13252;SDS011;6693;54.370;10.132;2023-07-29T00:40:54;11.80;;;6.07;;
13252;SDS011;6693;54.370;10.132;2023-07-29T00:41:54;11.80;;;6.22;;
13252;SDS011;6693;54.370;10.132;2023-07-29T00:42:58;11.43;;;5.70;;
13252;SDS011;6693;54.370;10.132;2023-07-29T00:43:58;11.70;;;6.65;;
13252;SDS011;6693;54.370;10.132;2023-07-29T00:44:59;12.45;;;6.15;;
13252;SDS011;6693;54.370;10.132;2023-07-29T00:46:02;11.80;;;5.57;;
13252;SDS011;6693;54.370;10.132;2023-07-29T00:47:03;12.85;;;5.97;;
13252;SDS011;6693;54.370;10.132;2023-07-29T00:48:08;11.07;;;5.43;;
13252;SDS011;6693;54.370;10.132;2023-07-29T00:49:08;11.30;;;5.55;;
13252;SDS011;6693;54.370;10.132;2023-07-29T00:50:14;11.05;;;5.30;;
13252;SDS011;6693;54.370;10.132;2023-07-29T00:51:15;10.48;;;5.40;;
13252;SDS011;6693;54.370;10.132;2023-07-29T00:52:18;10.35;;;5.22;;
13252;SDS011;6693;54.370;10.132;2023-07-29T00:53:19;13.10;;;5.38;;
13252;SDS011;6693;54.370;10.132;2023-07-29T00:54:22;12.30;;;5.78;;
13252;SDS011;6693;54.370;10.132;2023-07-29T00:55:23;11.38;;;5.60;;
13252;SDS011;6693;54.370;10.132;2023-07-29T00:56:24;11.23;;;5.47;;
13252;SDS011;6693;54.370;10.132;2023-07-29T00:57:27;11.02;;;5.32;;
13252;SDS011;6693;54.370;10.132;2023-07-29T00:58:29;12.43;;;5.80;;
13252;SDS011;6693;54.370;10.132;2023-07-29T00:59:32;12.02;;;5.72;;
13252;SDS011;6693;54.370;10.132;2023-07-29T01:00:34;13.27;;;5.65;;
13252;SDS011;6693;54.370;10.132;2023-07-29T01:01:37;13.20;;;5.55;;
13252;SDS011;6693;54.370;10.132;2023-07-29T01:02:37;11.00;;;5.15;;
13252;SDS011;6693;54.370;10.132;2023-07-29T01:03:41;11.77;;;5.15;;
13252;SDS011;6693;54.370;10.132;2023-07-29T01:04:42;11.68;;;5.07;;
13252;SDS011;6693;54.370;10.132;2023-07-29T01:05:50;11.25;;;4.53;;
13252;SDS011;6693;54.370;10.132;2023-07-29T01:06:58;11.27;;;4.32;;
13252;SDS011;6693;54.370;10.132;2023-07-29T01:08:07;12.05;;;5.45;;
13252;SDS011;6693;54.370;10.132;2023-07-29T01:09:14;10.95;;;4.80;;
13252;SDS011;6693;54.370;10.132;2023-07-29T01:10:27;12.77;;;4.82;;
13252;SDS011;6693;54.370;10.132;2023-07-29T01:12:40;11.13;;;5.05;;
13252;SDS011;6693;54.370;10.132;2023-07-29T01:13:44;10.88;;;5.18;;
13252;SDS011;6693;54.370;10.132;2023-07-29T01:14:55;12.52;;;5.78;;
13252;SDS011;6693;54.370;10.132;2023-07-29T01:16:01;11.77;;;5.82;;
13252;SDS011;6693;54.370;10.132;2023-07-29T01:17:08;12.48;;;5.50;;
13252;SDS011;6693;54.370;10.132;2023-07-29T01:18:11;12.93;;;5.68;;
13252;SDS011;6693;54.370;10.132;2023-07-29T01:19:20;11.95;;;5.10;;
13252;SDS011;6693;54.370;10.132;2023-07-29T01:20:33;11.90;;;5.20;;
13252;SDS011;6693;54.370;10.132;2023-07-29T01:21:39;12.30;;;5.30;;
13252;SDS011;6693;54.370;10.132;2023-07-29T01:22:40;12.00;;;5.20;;
13252;SDS011;6693;54.370;10.132;2023-07-29T01:23:47;12.10;;;5.50;;
13252;SDS011;6693;54.370;10.132;2023-07-29T01:24:47;11.05;;;5.20;;
13252;SDS011;6693;54.370;10.132;2023-07-29T01:25:50;12.02;;;5.13;;
13252;SDS011;6693;54.370;10.132;2023-07-29T01:26:51;11.55;;;5.28;;
13252;SDS011;6693;54.370;10.132;2023-07-29T01:27:54;10.18;;;4.63;;
13252;SDS011;6693;54.370;10.132;2023-07-29T01:28:55;12.07;;;5.50;;
13252;SDS011;6693;54.370;10.132;2023-07-29T01:29:59;15.38;;;5.20;;
13252;SDS011;6693;54.370;10.132;2023-07-29T01:31:01;10.20;;;4.68;;
13252;SDS011;6693;54.370;10.132;2023-07-29T01:32:07;12.93;;;4.85;;
13252;SDS011;6693;54.370;10.132;2023-07-29T01:33:18;11.50;;;5.22;;
13252;SDS011;6693;54.370;10.132;2023-07-29T01:34:25;10.27;;;4.80;;
13252;SDS011;6693;54.370;10.132;2023-07-29T01:35:31;10.35;;;4.95;;
13252;SDS011;6693;54.370;10.132;2023-07-29T01:36:36;9.60;;;4.60;;
13252;SDS011;6693;54.370;10.132;2023-07-29T01:37:40;11.25;;;5.03;;
13252;SDS011;6693;54.370;10.132;2023-07-29T01:38:47;10.27;;;4.47;;
13252;SDS011;6693;54.370;10.132;2023-07-29T01:39:48;9.88;;;4.80;;
13252;SDS011;6693;54.370;10.132;2023-07-29T01:40:52;9.70;;;4.22;;
13252;SDS011;6693;54.370;10.132;2023-07-29T01:41:53;9.90;;;5.00;;
13252;SDS011;6693;54.370;10.132;2023-07-29T01:42:57;9.55;;;4.72;;
13252;SDS011;6693;54.370;10.132;2023-07-29T01:43:57;9.00;;;4.70;;
13252;SDS011;6693;54.370;10.132;2023-07-29T01:45:01;9.90;;;4.45;;
13252;SDS011;6693;54.370;10.132;2023-07-29T01:46:01;11.40;;;4.20;;
13252;SDS011;6693;54.370;10.132;2023-07-29T01:47:05;11.00;;;4.55;;
13252;SDS011;6693;54.370;10.132;2023-07-29T01:48:06;11.85;;;5.35;;
13252;SDS011;6693;54.370;10.132;2023-07-29T01:49:09;9.88;;;4.53;;
13252;SDS011;6693;54.370;10.132;2023-07-29T01:50:10;8.93;;;4.18;;
13252;SDS011;6693;54.370;10.132;2023-07-29T01:51:14;10.27;;;5.00;;
13252;SDS011;6693;54.370;10.132;2023-07-29T01:52:14;9.10;;;4.70;;
13252;SDS011;6693;54.370;10.132;2023-07-29T01:53:18;9.43;;;3.97;;
13252;SDS011;6693;54.370;10.132;2023-07-29T01:54:21;9.35;;;4.50;;
13252;SDS011;6693;54.370;10.132;2023-07-29T01:55:22;11.63;;;5.07;;
13252;SDS011;6693;54.370;10.132;2023-07-29T01:56:25;11.73;;;5.72;;
13252;SDS011;6693;54.370;10.132;2023-07-29T01:57:26;10.10;;;4.60;;
13252;SDS011;6693;54.370;10.132;2023-07-29T01:58:29;10.43;;;5.00;;
13252;SDS011;6693;54.370;10.132;2023-07-29T01:59:29;8.98;;;4.43;;
13252;SDS011;6693;54.370;10.132;2023-07-29T02:00:33;10.52;;;4.78;;
13252;SDS011;6693;54.370;10.132;2023-07-29T02:01:33;8.75;;;4.38;;
13252;SDS011;6693;54.370;10.132;2023-07-29T02:02:36;11.65;;;5.03;;
13252;SDS011;6693;54.370;10.132;2023-07-29T02:03:37;9.13;;;4.88;;
13252;SDS011;6693;54.370;10.132;2023-07-29T02:04:40;9.73;;;4.45;;
13252;SDS011;6693;54.370;10.132;2023-07-29T02:05:41;8.52;;;4.45;;
13252;SDS011;6693;54.370;10.132;2023-07-29T02:06:44;10.80;;;4.60;;
13252;SDS011;6693;54.370;10.132;2023-07-29T02:07:45;10.90;;;4.75;;
13252;SDS011;6693;54.370;10.132;2023-07-29T02:08:48;9.68;;;4.53;;
13252;SDS011;6693;54.370;10.132;2023-07-29T02:09:52;10.60;;;4.57;;
13252;SDS011;6693;54.370;10.132;2023-07-29T02:10:55;10.60;;;4.32;;
13252;SDS011;6693;54.370;10.132;2023-07-29T02:11:55;8.90;;;4.40;;
13252;SDS011;6693;54.370;10.132;2023-07-29T02:12:59;8.85;;;4.50;;
13252;SDS011;6693;54.370;10.132;2023-07-29T02:13:59;9.52;;;4.32;;
13252;SDS011;6693;54.370;10.132;2023-07-29T02:15:03;11.00;;;4.78;;
13252;SDS011;6693;54.370;10.132;2023-07-29T02:16:04;8.95;;;4.47;;
13252;SDS011;6693;54.370;10.132;2023-07-29T02:17:07;8.63;;;4.50;;
13252;SDS011;6693;54.370;10.132;2023-07-29T02:18:09;9.27;;;4.43;;
13252;SDS011;6693;54.370;10.132;2023-07-29T02:19:12;9.25;;;4.50;;
13252;SDS011;6693;54.370;10.132;2023-07-29T02:20:13;10.35;;;4.88;;
13252;SDS011;6693;54.370;10.132;2023-07-29T02:21:16;8.18;;;4.03;;
13252;SDS011;6693;54.370;10.132;2023-07-29T02:22:17;9.30;;;4.40;;
13252;SDS011;6693;54.370;10.132;2023-07-29T02:23:20;10.40;;;4.68;;
13252;SDS011;6693;54.370;10.132;2023-07-29T02:24:21;8.60;;;4.40;;
13252;SDS011;6693;54.370;10.132;2023-07-29T02:25:27;8.77;;;4.63;;
13252;SDS011;6693;54.370;10.132;2023-07-29T02:26:27;8.27;;;3.67;;
13252;SDS011;6693;54.370;10.132;2023-07-29T02:27:30;9.43;;;4.32;;
13252;SDS011;6693;54.370;10.132;2023-07-29T02:28:31;10.73;;;4.40;;
13252;SDS011;6693;54.370;10.132;2023-07-29T02:29:34;8.63;;;4.50;;
13252;SDS011;6693;54.370;10.132;2023-07-29T02:30:35;9.52;;;4.32;;
13252;SDS011;6693;54.370;10.132;2023-07-29T02:31:39;9.02;;;4.50;;
13252;SDS011;6693;54.370;10.132;2023-07-29T02:32:39;9.23;;;4.60;;
13252;SDS011;6693;54.370;10.132;2023-07-29T02:33:43;10.90;;;5.55;;
13252;SDS011;6693;54.370;10.132;2023-07-29T02:34:44;10.57;;;4.90;;
13252;SDS011;6693;54.370;10.132;2023-07-29T02:35:47;10.05;;;4.80;;
13252;SDS011;6693;54.370;10.132;2023-07-29T02:36:48;9.65;;;4.97;;
13252;SDS011;6693;54.370;10.132;2023-07-29T02:37:51;8.93;;;4.10;;
13252;SDS011;6693;54.370;10.132;2023-07-29T02:38:51;10.82;;;4.88;;
13252;SDS011;6693;54.370;10.132;2023-07-29T02:39:55;10.32;;;4.47;;
13252;SDS011;6693;54.370;10.132;2023-07-29T02:40:58;9.40;;;4.95;;
13252;SDS011;6693;54.370;10.132;2023-07-29T02:42:01;8.65;;;4.47;;
13252;SDS011;6693;54.370;10.132;2023-07-29T02:43:02;10.20;;;5.13;;
13252;SDS011;6693;54.370;10.132;2023-07-29T02:44:05;9.00;;;4.70;;
13252;SDS011;6693;54.370;10.132;2023-07-29T02:45:06;10.32;;;4.40;;
13252;SDS011;6693;54.370;10.132;2023-07-29T02:46:11;10.02;;;4.28;;
13252;SDS011;6693;54.370;10.132;2023-07-29T02:47:12;9.50;;;4.63;;
13252;SDS011;6693;54.370;10.132;2023-07-29T02:48:12;9.02;;;4.25;;
13252;SDS011;6693;54.370;10.132;2023-07-29T02:49:16;9.07;;;4.22;;
13252;SDS011;6693;54.370;10.132;2023-07-29T02:50:16;8.63;;;4.25;;
13252;SDS011;6693;54.370;10.132;2023-07-29T02:51:17;10.35;;;5.03;;
13252;SDS011;6693;54.370;10.132;2023-07-29T02:52:20;9.32;;;4.40;;
13252;SDS011;6693;54.370;10.132;2023-07-29T02:53:21;8.20;;;4.32;;
13252;SDS011;6693;54.370;10.132;2023-07-29T02:54:25;10.45;;;4.43;;
13252;SDS011;6693;54.370;10.132;2023-07-29T02:55:26;9.50;;;4.60;;
13252;SDS011;6693;54.370;10.132;2023-07-29T02:56:32;9.48;;;4.70;;
13252;SDS011;6693;54.370;10.132;2023-07-29T02:57:32;8.68;;;4.60;;
13252;SDS011;6693;54.370;10.132;2023-07-29T02:58:36;8.63;;;4.20;;
13252;SDS011;6693;54.370;10.132;2023-07-29T02:59:37;10.40;;;4.53;;
13252;SDS011;6693;54.370;10.132;2023-07-29T03:00:40;11.32;;;4.78;;
13252;SDS011;6693;54.370;10.132;2023-07-29T03:01:42;9.35;;;4.30;;
13252;SDS011;6693;54.370;10.132;2023-07-29T03:02:45;8.85;;;4.55;;
13252;SDS011;6693;54.370;10.132;2023-07-29T03:03:45;10.48;;;4.40;;
13252;SDS011;6693;54.370;10.132;2023-07-29T03:04:49;8.98;;;3.83;;
13252;SDS011;6693;54.370;10.132;2023-07-29T03:05:49;9.48;;;4.65;;
13252;SDS011;6693;54.370;10.132;2023-07-29T03:06:53;9.57;;;4.65;;
13252;SDS011;6693;54.370;10.132;2023-07-29T03:07:53;10.75;;;4.95;;
13252;SDS011;6693;54.370;10.132;2023-07-29T03:08:56;9.77;;;4.70;;
13252;SDS011;6693;54.370;10.132;2023-07-29T03:09:57;9.52;;;4.82;;
13252;SDS011;6693;54.370;10.132;2023-07-29T03:11:04;9.63;;;4.55;;
13252;SDS011;6693;54.370;10.132;2023-07-29T03:12:09;9.05;;;4.63;;
13252;SDS011;6693;54.370;10.132;2023-07-29T03:13:12;10.75;;;5.10;;
13252;SDS011;6693;54.370;10.132;2023-07-29T03:14:12;9.82;;;4.68;;
13252;SDS011;6693;54.370;10.132;2023-07-29T03:15:16;10.65;;;4.25;;
13252;SDS011;6693;54.370;10.132;2023-07-29T03:16:17;10.55;;;4.80;;
13252;SDS011;6693;54.370;10.132;2023-07-29T03:17:20;9.85;;;4.40;;
13252;SDS011;6693;54.370;10.132;2023-07-29T03:18:21;9.40;;;4.60;;
13252;SDS011;6693;54.370;10.132;2023-07-29T03:19:24;10.13;;;4.88;;
13252;SDS011;6693;54.370;10.132;2023-07-29T03:20:24;9.25;;;4.10;;
13252;SDS011;6693;54.370;10.132;2023-07-29T03:21:27;9.70;;;4.57;;
13252;SDS011;6693;54.370;10.132;2023-07-29T03:22:28;11.52;;;5.05;;
13252;SDS011;6693;54.370;10.132;2023-07-29T03:23:32;9.55;;;4.80;;
13252;SDS011;6693;54.370;10.132;2023-07-29T03:24:32;10.80;;;4.85;;
13252;SDS011;6693;54.370;10.132;2023-07-29T03:25:36;8.75;;;4.65;;
13252;SDS011;6693;54.370;10.132;2023-07-29T03:26:36;9.27;;;4.70;;
13252;SDS011;6693;54.370;10.132;2023-07-29T03:27:42;10.20;;;4.75;;
13252;SDS011;6693;54.370;10.132;2023-07-29T03:28:43;10.95;;;4.63;;
13252;SDS011;6693;54.370;10.132;2023-07-29T03:29:46;9.88;;;4.97;;
13252;SDS011;6693;54.370;10.132;2023-07-29T03:30:47;10.10;;;4.80;;
13252;SDS011;6693;54.370;10.132;2023-07-29T03:31:51;11.02;;;5.38;;
13252;SDS011;6693;54.370;10.132;2023-07-29T03:32:55;10.98;;;5.22;;
13252;SDS011;6693;54.370;10.132;2023-07-29T03:33:55;10.48;;;5.47;;
13252;SDS011;6693;54.370;10.132;2023-07-29T03:34:58;9.43;;;4.72;;
13252;SDS011;6693;54.370;10.132;2023-07-29T03:35:59;10.63;;;4.97;;
13252;SDS011;6693;54.370;10.132;2023-07-29T03:37:03;10.02;;;4.88;;
13252;SDS011;6693;54.370;10.132;2023-07-29T03:38:06;10.43;;;5.40;;
13252;SDS011;6693;54.370;10.132;2023-07-29T03:39:07;11.23;;;4.68;;
13252;SDS011;6693;54.370;10.132;2023-07-29T03:40:10;11.23;;;4.82;;
13252;SDS011;6693;54.370;10.132;2023-07-29T03:41:11;9.25;;;4.50;;
13252;SDS011;6693;54.370;10.132;2023-07-29T03:42:12;9.85;;;5.35;;
13252;SDS011;6693;54.370;10.132;2023-07-29T03:43:18;13.20;;;5.75;;
13252;SDS011;6693;54.370;10.132;2023-07-29T03:44:18;10.93;;;4.93;;
13252;SDS011;6693;54.370;10.132;2023-07-29T03:45:22;12.25;;;5.70;;
13252;SDS011;6693;54.370;10.132;2023-07-29T03:46:22;11.98;;;5.60;;
13252;SDS011;6693;54.370;10.132;2023-07-29T03:47:26;11.80;;;5.28;;
13252;SDS011;6693;54.370;10.132;2023-07-29T03:48:26;11.68;;;4.80;;
13252;SDS011;6693;54.370;10.132;2023-07-29T03:49:31;10.52;;;4.55;;
13252;SDS011;6693;54.370;10.132;2023-07-29T03:50:32;10.15;;;4.57;;
13252;SDS011;6693;54.370;10.132;2023-07-29T03:51:36;9.90;;;4.63;;
13252;SDS011;6693;54.370;10.132;2023-07-29T03:52:37;10.18;;;4.75;;
13252;SDS011;6693;54.370;10.132;2023-07-29T03:53:40;10.93;;;4.60;;
13252;SDS011;6693;54.370;10.132;2023-07-29T03:54:41;10.02;;;4.63;;
13252;SDS011;6693;54.370;10.132;2023-07-29T03:55:44;9.52;;;5.10;;
13252;SDS011;6693;54.370;10.132;2023-07-29T03:56:44;10.18;;;4.78;;
13252;SDS011;6693;54.370;10.132;2023-07-29T03:57:48;9.85;;;4.13;;
13252;SDS011;6693;54.370;10.132;2023-07-29T03:58:51;11.43;;;4.85;;
13252;SDS011;6693;54.370;10.132;2023-07-29T03:59:55;11.02;;;5.22;;
13252;SDS011;6693;54.370;10.132;2023-07-29T04:00:55;10.38;;;5.00;;
13252;SDS011;6693;54.370;10.132;2023-07-29T04:01:59;10.00;;;4.63;;
13252;SDS011;6693;54.370;10.132;2023-07-29T04:02:59;10.98;;;4.93;;
13252;SDS011;6693;54.370;10.132;2023-07-29T04:04:03;12.00;;;5.00;;
13252;SDS011;6693;54.370;10.132;2023-07-29T04:05:04;10.00;;;4.22;;
13252;SDS011;6693;54.370;10.132;2023-07-29T04:06:08;11.00;;;5.13;;
13252;SDS011;6693;54.370;10.132;2023-07-29T04:07:09;9.00;;;4.20;;
13252;SDS011;6693;54.370;10.132;2023-07-29T04:08:12;12.55;;;5.28;;
13252;SDS011;6693;54.370;10.132;2023-07-29T04:09:13;10.82;;;4.93;;
13252;SDS011;6693;54.370;10.132;2023-07-29T04:10:16;11.80;;;5.07;;
13252;SDS011;6693;54.370;10.132;2023-07-29T04:11:18;12.15;;;5.03;;
13252;SDS011;6693;54.370;10.132;2023-07-29T04:12:21;12.02;;;5.65;;
13252;SDS011;6693;54.370;10.132;2023-07-29T04:13:22;12.20;;;5.68;;
13252;SDS011;6693;54.370;10.132;2023-07-29T04:14:28;12.43;;;5.22;;
13252;SDS011;6693;54.370;10.132;2023-07-29T04:15:28;13.18;;;5.50;;
13252;SDS011;6693;54.370;10.132;2023-07-29T04:16:32;13.98;;;5.63;;
13252;SDS011;6693;54.370;10.132;2023-07-29T04:17:32;13.27;;;5.93;;
13252;SDS011;6693;54.370;10.132;2023-07-29T04:18:33;13.70;;;5.05;;
13252;SDS011;6693;54.370;10.132;2023-07-29T04:19:36;15.27;;;6.55;;
13252;SDS011;6693;54.370;10.132;2023-07-29T04:20:37;12.18;;;5.45;;
13252;SDS011;6693;54.370;10.132;2023-07-29T04:21:40;14.98;;;5.78;;
13252;SDS011;6693;54.370;10.132;2023-07-29T04:22:41;16.08;;;6.32;;
13252;SDS011;6693;54.370;10.132;2023-07-29T04:23:44;14.75;;;6.30;;
13252;SDS011;6693;54.370;10.132;2023-07-29T04:24:44;14.05;;;6.70;;
13252;SDS011;6693;54.370;10.132;2023-07-29T04:25:48;15.70;;;6.55;;
13252;SDS011;6693;54.370;10.132;2023-07-29T04:26:49;17.80;;;7.20;;
13252;SDS011;6693;54.370;10.132;2023-07-29T04:27:53;19.25;;;7.15;;
13252;SDS011;6693;54.370;10.132;2023-07-29T04:28:53;16.80;;;6.43;;
13252;SDS011;6693;54.370;10.132;2023-07-29T04:30:01;20.13;;;6.88;;
13252;SDS011;6693;54.370;10.132;2023-07-29T04:31:01;13.48;;;5.18;;
13252;SDS011;6693;54.370;10.132;2023-07-29T04:32:05;15.25;;;6.13;;
13252;SDS011;6693;54.370;10.132;2023-07-29T04:33:06;14.38;;;5.55;;
13252;SDS011;6693;54.370;10.132;2023-07-29T04:34:09;15.45;;;5.60;;
13252;SDS011;6693;54.370;10.132;2023-07-29T04:35:09;13.90;;;6.10;;
13252;SDS011;6693;54.370;10.132;2023-07-29T04:36:10;21.95;;;6.55;;
13252;SDS011;6693;54.370;10.132;2023-07-29T04:37:13;12.85;;;5.03;;
13252;SDS011;6693;54.370;10.132;2023-07-29T04:38:14;15.10;;;5.38;;
13252;SDS011;6693;54.370;10.132;2023-07-29T04:39:17;17.15;;;5.78;;
13252;SDS011;6693;54.370;10.132;2023-07-29T04:40:18;15.40;;;5.85;;
13252;SDS011;6693;54.370;10.132;2023-07-29T04:41:25;14.32;;;4.82;;
13252;SDS011;6693;54.370;10.132;2023-07-29T04:42:26;12.65;;;4.75;;
13252;SDS011;6693;54.370;10.132;2023-07-29T04:43:31;14.02;;;4.43;;
13252;SDS011;6693;54.370;10.132;2023-07-29T04:44:32;16.10;;;5.45;;
13252;SDS011;6693;54.370;10.132;2023-07-29T04:45:37;15.27;;;6.13;;
13252;SDS011;6693;54.370;10.132;2023-07-29T04:46:44;12.90;;;6.53;;
13252;SDS011;6693;54.370;10.132;2023-07-29T04:47:47;15.63;;;5.97;;
13252;SDS011;6693;54.370;10.132;2023-07-29T04:48:48;17.33;;;5.55;;
13252;SDS011;6693;54.370;10.132;2023-07-29T04:49:51;13.80;;;5.03;;
13252;SDS011;6693;54.370;10.132;2023-07-29T04:50:51;14.65;;;5.28;;
13252;SDS011;6693;54.370;10.132;2023-07-29T04:51:54;14.15;;;4.70;;
13252;SDS011;6693;54.370;10.132;2023-07-29T04:52:55;17.35;;;5.60;;
13252;SDS011;6693;54.370;10.132;2023-07-29T04:53:58;16.25;;;5.30;;
13252;SDS011;6693;54.370;10.132;2023-07-29T04:54:59;19.20;;;6.00;;
13252;SDS011;6693;54.370;10.132;2023-07-29T04:56:02;18.25;;;6.03;;
13252;SDS011;6693;54.370;10.132;2023-07-29T04:57:03;18.92;;;6.05;;
13252;SDS011;6693;54.370;10.132;2023-07-29T04:58:06;16.85;;;5.75;;
13252;SDS011;6693;54.370;10.132;2023-07-29T04:59:07;16.58;;;5.65;;
13252;SDS011;6693;54.370;10.132;2023-07-29T05:00:09;15.43;;;5.53;;
13252;SDS011;6693;54.370;10.132;2023-07-29T05:01:16;15.82;;;6.03;;
13252;SDS011;6693;54.370;10.132;2023-07-29T05:02:16;13.98;;;5.75;;
13252;SDS011;6693;54.370;10.132;2023-07-29T05:03:21;16.75;;;6.15;;
13252;SDS011;6693;54.370;10.132;2023-07-29T05:04:21;15.70;;;6.53;;
13252;SDS011;6693;54.370;10.132;2023-07-29T05:05:25;17.55;;;6.32;;
13252;SDS011;6693;54.370;10.132;2023-07-29T05:06:25;19.50;;;6.82;;
13252;SDS011;6693;54.370;10.132;2023-07-29T05:07:29;19.52;;;6.45;;
13252;SDS011;6693;54.370;10.132;2023-07-29T05:08:29;18.60;;;6.30;;
13252;SDS011;6693;54.370;10.132;2023-07-29T05:09:32;16.75;;;6.38;;
13252;SDS011;6693;54.370;10.132;2023-07-29T05:10:34;17.65;;;6.43;;
13252;SDS011;6693;54.370;10.132;2023-07-29T05:11:37;15.55;;;5.60;;
13252;SDS011;6693;54.370;10.132;2023-07-29T05:12:38;19.23;;;6.78;;
13252;SDS011;6693;54.370;10.132;2023-07-29T05:13:41;16.70;;;6.15;;
13252;SDS011;6693;54.370;10.132;2023-07-29T05:14:44;17.75;;;6.70;;
13252;SDS011;6693;54.370;10.132;2023-07-29T05:15:47;16.50;;;6.82;;
13252;SDS011;6693;54.370;10.132;2023-07-29T05:16:50;19.42;;;6.78;;
13252;SDS011;6693;54.370;10.132;2023-07-29T05:17:53;16.63;;;6.22;;
13252;SDS011;6693;54.370;10.132;2023-07-29T05:18:54;16.27;;;6.25;;
13252;SDS011;6693;54.370;10.132;2023-07-29T05:19:57;17.55;;;6.55;;
13252;SDS011;6693;54.370;10.132;2023-07-29T05:20:58;16.00;;;6.25;;
13252;SDS011;6693;54.370;10.132;2023-07-29T05:22:01;18.52;;;6.55;;
13252;SDS011;6693;54.370;10.132;2023-07-29T05:23:01;20.60;;;6.50;;
13252;SDS011;6693;54.370;10.132;2023-07-29T05:24:05;21.27;;;6.45;;
13252;SDS011;6693;54.370;10.132;2023-07-29T05:25:06;20.52;;;7.30;;
13252;SDS011;6693;54.370;10.132;2023-07-29T05:26:10;24.00;;;7.10;;
13252;SDS011;6693;54.370;10.132;2023-07-29T05:27:10;21.88;;;6.90;;
13252;SDS011;6693;54.370;10.132;2023-07-29T05:28:13;19.73;;;6.80;;
13252;SDS011;6693;54.370;10.132;2023-07-29T05:29:14;19.50;;;6.68;;
13252;SDS011;6693;54.370;10.132;2023-07-29T05:30:17;22.55;;;6.68;;
13252;SDS011;6693;54.370;10.132;2023-07-29T05:31:18;23.20;;;6.72;;
13252;SDS011;6693;54.370;10.132;2023-07-29T05:32:24;18.52;;;6.35;;
13252;SDS011;6693;54.370;10.132;2023-07-29T05:33:24;24.05;;;7.20;;
13252;SDS011;6693;54.370;10.132;2023-07-29T05:34:27;21.00;;;7.10;;
13252;SDS011;6693;54.370;10.132;2023-07-29T05:35:28;24.17;;;6.97;;
13252;SDS011;6693;54.370;10.132;2023-07-29T05:36:31;23.27;;;7.35;;
13252;SDS011;6693;54.370;10.132;2023-07-29T05:37:32;30.38;;;7.60;;
13252;SDS011;6693;54.370;10.132;2023-07-29T05:38:35;24.10;;;7.53;;
13252;SDS011;6693;54.370;10.132;2023-07-29T05:39:36;24.73;;;7.60;;
13252;SDS011;6693;54.370;10.132;2023-07-29T05:40:39;26.10;;;7.60;;
13252;SDS011;6693;54.370;10.132;2023-07-29T05:41:40;20.40;;;6.55;;
13252;SDS011;6693;54.370;10.132;2023-07-29T05:42:43;18.92;;;6.97;;
13252;SDS011;6693;54.370;10.132;2023-07-29T05:43:45;19.15;;;6.35;;
13252;SDS011;6693;54.370;10.132;2023-07-29T05:44:48;18.58;;;6.93;;
13252;SDS011;6693;54.370;10.132;2023-07-29T05:45:49;19.40;;;6.45;;
13252;SDS011;6693;54.370;10.132;2023-07-29T05:46:52;16.77;;;6.53;;
13252;SDS011;6693;54.370;10.132;2023-07-29T05:47:55;16.75;;;6.72;;
13252;SDS011;6693;54.370;10.132;2023-07-29T05:48:58;14.30;;;5.88;;
13252;SDS011;6693;54.370;10.132;2023-07-29T05:49:59;14.52;;;6.43;;
13252;SDS011;6693;54.370;10.132;2023-07-29T05:51:04;15.73;;;6.22;;
13252;SDS011;6693;54.370;10.132;2023-07-29T05:52:07;13.32;;;6.00;;
13252;SDS011;6693;54.370;10.132;2023-07-29T05:53:10;13.98;;;5.90;;
13252;SDS011;6693;54.370;10.132;2023-07-29T05:54:11;13.00;;;5.57;;
13252;SDS011;6693;54.370;10.132;2023-07-29T05:55:11;12.02;;;5.97;;
13252;SDS011;6693;54.370;10.132;2023-07-29T05:56:14;10.95;;;5.25;;
13252;SDS011;6693;54.370;10.132;2023-07-29T05:57:15;10.90;;;5.68;;
13252;SDS011;6693;54.370;10.132;2023-07-29T05:58:18;10.88;;;5.47;;
13252;SDS011;6693;54.370;10.132;2023-07-29T05:59:19;11.80;;;5.18;;
13252;SDS011;6693;54.370;10.132;2023-07-29T06:00:22;11.80;;;5.30;;
13252;SDS011;6693;54.370;10.132;2023-07-29T06:01:23;11.63;;;5.47;;
13252;SDS011;6693;54.370;10.132;2023-07-29T06:02:23;13.50;;;6.57;;
13252;SDS011;6693;54.370;10.132;2023-07-29T06:03:29;11.20;;;5.60;;
13252;SDS011;6693;54.370;10.132;2023-07-29T06:04:30;12.38;;;5.85;;
13252;SDS011;6693;54.370;10.132;2023-07-29T06:05:33;14.48;;;6.82;;
13252;SDS011;6693;54.370;10.132;2023-07-29T06:06:34;12.52;;;6.53;;
13252;SDS011;6693;54.370;10.132;2023-07-29T06:07:37;13.35;;;7.65;;
13252;SDS011;6693;54.370;10.132;2023-07-29T06:08:38;12.23;;;6.60;;
13252;SDS011;6693;54.370;10.132;2023-07-29T06:09:41;17.35;;;8.38;;
13252;SDS011;6693;54.370;10.132;2023-07-29T06:10:42;12.50;;;6.95;;
13252;SDS011;6693;54.370;10.132;2023-07-29T06:11:45;14.35;;;7.65;;
13252;SDS011;6693;54.370;10.132;2023-07-29T06:12:45;14.23;;;6.80;;
13252;SDS011;6693;54.370;10.132;2023-07-29T06:13:49;13.07;;;6.10;;